Artikler
   Vis nr. 
Nr. Artikkeltittel Dato Skribent Treff
1 Tur/retur Guayaquil – Salinas (SEGU – SESA) lørdag 6.1.2007 med Andreas Andersen fredag 26. januar 2007 Helge Aasen 2517
 
 
METAR
2021/09/17 07:20 ENCN 170720Z 03015KT 9999 BKN028 11/05 Q1018
TAF
2021/09/17 06:36 TAF TAF ENCN 170500Z 1706/1715 03010KT 9999 FEW020 BKN040 TEMPO 1711/1712 05015G25KT
LN-KFK
Operativ VFR-natt
VFR dag
06:21 - 20:22
Brannvakt
Inaktiv
Banner
Banner
Banner
Banner
Banner